createdAt,value
2022-09-07T00:00:40.141Z,1.67
2022-09-07T00:03:08.111Z,1.02
2022-09-07T00:05:46.187Z,1.35
2022-09-07T00:08:13.870Z,1.40
2022-09-07T00:11:01.901Z,1.30
2022-09-07T00:13:33.115Z,1.13
2022-09-07T00:16:15.183Z,1.15
2022-09-07T00:18:48.547Z,1.10
2022-09-07T00:21:18.145Z,1.35
2022-09-07T00:23:46.217Z,1.63
2022-09-07T00:26:17.322Z,1.05
2022-09-07T00:28:44.980Z,1.27
2022-09-07T00:31:15.877Z,1.50
2022-09-07T00:33:43.975Z,1.58
2022-09-07T00:36:11.562Z,1.30
2022-09-07T00:38:39.224Z,1.77
2022-09-07T00:41:07.325Z,1.08
2022-09-07T00:43:36.243Z,1.73
2022-09-07T00:46:05.095Z,1.48
2022-09-07T00:48:46.086Z,1.60
2022-09-07T00:51:18.950Z,1.95
2022-09-07T00:53:55.770Z,1.40
2022-09-07T00:56:28.922Z,1.67
2022-09-07T00:58:57.085Z,1.60
2022-09-07T01:01:27.626Z,1.70
2022-09-07T01:03:57.883Z,1.45
2022-09-07T01:06:36.834Z,1.67
2022-09-07T01:09:12.678Z,1.80
2022-09-07T01:11:40.499Z,2.45
2022-09-07T01:14:12.081Z,2.42
2022-09-07T01:16:50.530Z,2.42
2022-09-07T01:19:49.770Z,2.15
2022-09-07T01:22:49.148Z,2.45
2022-09-07T01:25:45.709Z,1.70
2022-09-07T01:28:21.021Z,3.05
2022-09-07T01:31:11.782Z,2.67
2022-09-07T01:34:17.682Z,2.65
2022-09-07T01:37:09.824Z,2.22
2022-09-07T01:39:47.789Z,3.15
2022-09-07T01:42:20.542Z,2.63
2022-09-07T01:44:52.585Z,2.90
2022-09-07T01:47:32.875Z,2.88
2022-09-07T01:50:06.247Z,3.17
2022-09-07T01:52:47.758Z,3.22
2022-09-07T01:55:27.330Z,2.85
2022-09-07T01:58:06.846Z,3.28
2022-09-07T02:00:37.854Z,3.75
2022-09-07T02:03:16.608Z,3.35
2022-09-07T02:06:00.783Z,4.28
2022-09-07T02:08:30.268Z,3.92
2022-09-07T02:11:04.028Z,4.13
2022-09-07T02:14:01.809Z,4.35
2022-09-07T02:16:31.693Z,4.63
2022-09-07T02:19:14.321Z,4.60
2022-09-07T02:21:47.382Z,4.95
2022-09-07T02:24:26.649Z,4.53
2022-09-07T02:26:56.334Z,4.85
2022-09-07T02:29:24.531Z,3.60
2022-09-07T02:31:54.121Z,4.35
2022-09-07T02:34:22.288Z,4.88
2022-09-07T02:36:51.696Z,4.65
2022-09-07T02:39:19.161Z,4.13
2022-09-07T02:41:46.827Z,4.85
2022-09-07T02:44:21.444Z,4.50
2022-09-07T02:47:06.565Z,4.32
2022-09-07T02:50:01.812Z,4.55
2022-09-07T02:52:47.502Z,4.32
2022-09-07T02:58:31.280Z,4.05
2022-09-07T03:01:29.086Z,4.53
2022-09-07T03:04:08.170Z,5.13
2022-09-07T03:06:41.140Z,4.35
2022-09-07T03:09:15.532Z,4.30
2022-09-07T03:11:43.539Z,5.63
2022-09-07T03:14:19.180Z,5.85
2022-09-07T03:16:57.446Z,4.35
2022-09-07T03:19:24.840Z,5.35
2022-09-07T03:21:52.314Z,4.68
2022-09-07T03:24:19.903Z,4.15
2022-09-07T03:26:51.756Z,4.38
2022-09-07T03:29:19.879Z,4.20
2022-09-07T03:31:47.758Z,4.45
2022-09-07T03:34:16.255Z,3.80
2022-09-07T03:36:43.713Z,4.55
2022-09-07T03:39:12.629Z,5.43
2022-09-07T03:41:40.149Z,3.85
2022-09-07T03:44:08.282Z,4.40
2022-09-07T03:46:36.069Z,4.25
2022-09-07T03:49:03.624Z,3.67
2022-09-07T03:51:31.374Z,3.75
2022-09-07T03:54:00.745Z,3.90
2022-09-07T03:56:28.538Z,3.67
2022-09-07T03:58:56.307Z,4.20
2022-09-07T04:01:25.421Z,4.03
2022-09-07T04:03:53.237Z,3.78
2022-09-07T04:06:20.800Z,3.65
2022-09-07T04:08:48.732Z,3.28
2022-09-07T04:11:18.429Z,3.67
2022-09-07T04:13:46.911Z,3.15
2022-09-07T04:16:22.971Z,3.20
2022-09-07T04:18:50.767Z,3.65
2022-09-07T04:21:23.096Z,2.72
2022-09-07T04:23:51.089Z,2.90
2022-09-07T04:26:22.177Z,2.95
2022-09-07T04:28:50.289Z,3.22
2022-09-07T04:31:19.225Z,3.00
2022-09-07T04:33:48.148Z,3.17
2022-09-07T04:36:16.919Z,7.88
2022-09-07T04:38:44.411Z,2.90
2022-09-07T04:41:15.511Z,2.65
2022-09-07T04:43:43.648Z,3.33
2022-09-07T04:46:22.261Z,2.90
2022-09-07T04:48:55.902Z,2.45
2022-09-07T04:51:25.202Z,3.58
2022-09-07T04:53:54.051Z,1.88
2022-09-07T04:56:22.930Z,2.67
2022-09-07T04:58:51.721Z,2.40
2022-09-07T05:01:21.735Z,2.35
2022-09-07T05:03:50.408Z,2.70
2022-09-07T05:06:19.571Z,2.17
2022-09-07T05:08:49.126Z,4.70
2022-09-07T05:11:18.625Z,2.63
2022-09-07T05:13:45.958Z,2.17
2022-09-07T05:16:22.372Z,2.08
2022-09-07T05:18:57.590Z,1.90
2022-09-07T05:21:27.401Z,1.92
2022-09-07T05:23:55.937Z,1.77
2022-09-07T05:26:25.234Z,1.83
2022-09-07T05:28:53.018Z,2.13
2022-09-07T05:31:23.300Z,2.40
2022-09-07T05:36:42.731Z,1.67
2022-09-07T05:39:10.281Z,2.05
2022-09-07T05:41:37.812Z,2.13
2022-09-07T05:46:56.167Z,3.75
2022-09-07T05:49:23.471Z,2.15
2022-09-07T05:51:50.630Z,1.65
2022-09-07T05:54:17.806Z,2.00
2022-09-07T05:56:44.985Z,1.50
2022-09-07T05:59:12.295Z,2.22
2022-09-07T06:01:42.492Z,2.75
2022-09-07T06:04:09.747Z,2.45
2022-09-07T06:06:41.009Z,1.80
2022-09-07T06:09:09.424Z,1.50
2022-09-07T06:11:37.101Z,1.92
2022-09-07T06:14:04.585Z,2.08
2022-09-07T06:16:35.271Z,1.85
2022-09-07T06:19:06.594Z,1.90
2022-09-07T06:21:38.479Z,2.40
2022-09-07T06:24:06.845Z,2.47
2022-09-07T06:26:34.236Z,1.88
2022-09-07T06:29:02.894Z,2.40
2022-09-07T06:31:30.218Z,1.83
2022-09-07T06:33:59.050Z,2.58
2022-09-07T06:36:28.056Z,1.75
2022-09-07T06:38:57.070Z,1.50
2022-09-07T06:44:14.099Z,2.47
2022-09-07T06:49:28.947Z,2.03
2022-09-07T06:51:56.199Z,1.75
2022-09-07T06:57:10.765Z,2.03
2022-09-07T06:59:38.513Z,2.38
2022-09-07T07:02:07.198Z,2.25
2022-09-07T07:04:40.315Z,2.17
2022-09-07T07:07:12.663Z,1.88
2022-09-07T07:09:40.363Z,2.80
2022-09-07T07:12:07.769Z,1.85
2022-09-07T07:14:38.429Z,1.98
2022-09-07T07:17:07.071Z,3.05
2022-09-07T07:19:34.453Z,2.38
2022-09-07T07:24:49.145Z,2.05
2022-09-07T07:27:16.438Z,1.88
2022-09-07T07:29:43.723Z,2.28
2022-09-07T07:32:10.922Z,2.38
2022-09-07T07:34:38.286Z,2.10
2022-09-07T07:37:05.670Z,2.00
2022-09-07T07:42:21.263Z,1.85
2022-09-07T07:44:48.872Z,2.05
2022-09-07T07:47:16.264Z,1.70
2022-09-07T07:49:43.616Z,1.65
2022-09-07T07:54:58.144Z,1.80
2022-09-07T07:57:25.373Z,2.03
2022-09-07T07:59:52.822Z,2.63
2022-09-07T08:02:20.078Z,1.42
2022-09-07T08:04:47.307Z,2.15
2022-09-07T08:07:15.382Z,1.63
2022-09-07T08:09:44.704Z,2.35
2022-09-07T08:12:17.119Z,1.83
2022-09-07T08:14:44.196Z,1.90
2022-09-07T08:17:13.616Z,1.98
2022-09-07T08:19:41.327Z,1.73
2022-09-07T08:22:10.796Z,1.90
2022-09-07T08:24:38.095Z,2.28
2022-09-07T08:27:05.619Z,1.77
2022-09-07T08:29:35.118Z,2.20
2022-09-07T08:32:06.846Z,2.03
2022-09-07T08:34:37.343Z,1.88
2022-09-07T08:37:04.814Z,2.55
2022-09-07T08:39:32.003Z,2.00
2022-09-07T08:42:21.160Z,2.60
2022-09-07T08:44:55.539Z,2.58
2022-09-07T08:48:00.899Z,2.28
2022-09-07T08:50:49.531Z,2.38
2022-09-07T08:53:19.773Z,2.10
2022-09-07T08:56:00.371Z,2.10
2022-09-07T08:58:50.582Z,2.15
2022-09-07T09:01:36.524Z,2.85
2022-09-07T09:04:18.519Z,2.83
2022-09-07T09:07:02.576Z,2.83
2022-09-07T09:09:38.820Z,2.47
2022-09-07T09:12:24.422Z,2.30
2022-09-07T09:15:21.951Z,3.10
2022-09-07T09:18:01.845Z,3.58
2022-09-07T09:20:50.603Z,4.25
2022-09-07T09:23:22.112Z,2.58
2022-09-07T09:26:22.798Z,3.33
2022-09-07T09:28:50.132Z,2.83
2022-09-07T09:31:24.057Z,3.17
2022-09-07T09:34:24.041Z,3.50
2022-09-07T09:36:56.863Z,3.70
2022-09-07T09:39:33.911Z,4.50
2022-09-07T09:42:24.120Z,2.92
2022-09-07T09:44:51.721Z,2.25
2022-09-07T09:47:34.311Z,3.25
2022-09-07T09:50:08.093Z,3.30
2022-09-07T09:52:47.646Z,3.83
2022-09-07T09:55:34.630Z,3.22
2022-09-07T10:06:22.714Z,3.55
2022-09-07T10:08:58.062Z,2.80
2022-09-07T10:14:45.589Z,2.70
2022-09-07T10:17:27.836Z,4.05
2022-09-07T10:20:04.392Z,2.50
2022-09-07T10:22:37.775Z,2.75
2022-09-07T10:25:39.752Z,3.97
2022-09-07T10:28:13.078Z,3.20
2022-09-07T10:31:01.549Z,3.08
2022-09-07T10:34:25.711Z,2.78
2022-09-07T10:37:05.303Z,3.40
2022-09-07T10:39:37.302Z,3.33
2022-09-07T10:42:10.477Z,3.50
2022-09-07T10:44:49.560Z,3.92
2022-09-07T10:47:30.772Z,3.75
2022-09-07T10:50:26.914Z,3.90
2022-09-07T10:55:28.476Z,4.60
2022-09-07T10:58:13.575Z,3.25
2022-09-07T11:01:22.052Z,3.50
2022-09-07T11:04:22.649Z,3.30
2022-09-07T11:06:53.390Z,3.85
2022-09-07T11:09:48.674Z,4.28
2022-09-07T11:12:28.433Z,4.17
2022-09-07T11:15:27.663Z,4.00
2022-09-07T11:18:03.552Z,4.63
2022-09-07T11:20:51.038Z,4.65
2022-09-07T11:23:48.354Z,5.28
2022-09-07T11:26:24.956Z,4.90
2022-09-07T11:31:49.604Z,4.18
2022-09-07T11:34:35.704Z,4.60
2022-09-07T11:37:28.613Z,5.43
2022-09-07T11:40:21.717Z,6.13
2022-09-07T11:43:25.468Z,4.88
2022-09-07T11:45:57.470Z,5.57
2022-09-07T11:49:05.568Z,5.65
2022-09-07T11:52:09.154Z,5.53
2022-09-07T11:54:44.592Z,6.20
2022-09-07T11:57:27.908Z,5.22
2022-09-07T12:00:20.802Z,5.22
2022-09-07T12:03:18.800Z,5.18
2022-09-07T12:06:00.238Z,5.95
2022-09-07T12:08:46.009Z,5.90
2022-09-07T12:11:41.996Z,5.53
2022-09-07T12:14:28.154Z,7.57
2022-09-07T12:17:15.653Z,5.85
2022-09-07T12:19:43.163Z,6.03
2022-09-07T12:22:23.533Z,6.20
2022-09-07T12:24:54.612Z,6.53
2022-09-07T12:27:21.891Z,8.40
2022-09-07T12:29:50.152Z,6.82
2022-09-07T12:32:56.586Z,6.85
2022-09-07T12:35:33.616Z,6.03
2022-09-07T12:38:03.501Z,5.53
2022-09-07T12:40:36.429Z,7.00
2022-09-07T12:43:15.758Z,6.13
2022-09-07T12:45:42.805Z,5.95
2022-09-07T12:48:16.274Z,6.05
2022-09-07T12:54:33.536Z,6.53
2022-09-07T12:59:55.223Z,6.88
2022-09-07T13:02:39.431Z,5.72
2022-09-07T13:05:43.820Z,6.28
2022-09-07T13:08:10.941Z,6.28
2022-09-07T13:10:42.082Z,5.97
2022-09-07T13:14:02.650Z,6.95
2022-09-07T13:16:12.366Z,6.75
2022-09-07T13:18:44.490Z,5.63
2022-09-07T13:21:12.275Z,6.72
2022-09-07T13:23:43.217Z,6.75
2022-09-07T13:26:30.626Z,7.85
2022-09-07T13:29:05.815Z,6.85
2022-09-07T13:34:37.983Z,8.85
2022-09-07T13:37:13.549Z,7.95
2022-09-07T13:39:45.334Z,6.57
2022-09-07T13:42:17.707Z,6.97
2022-09-07T13:44:55.722Z,7.82
2022-09-07T13:48:00.505Z,8.27
2022-09-07T13:50:46.454Z,6.88
2022-09-07T13:53:19.858Z,7.18
2022-09-07T13:55:56.335Z,7.10
2022-09-07T13:58:40.425Z,8.65
2022-09-07T14:01:13.827Z,7.75
2022-09-07T14:03:52.458Z,6.15
2022-09-07T14:06:22.630Z,7.40
2022-09-07T14:09:03.120Z,6.25
2022-09-07T14:11:43.391Z,8.43
2022-09-07T14:14:22.917Z,6.25
2022-09-07T14:17:00.558Z,7.00
2022-09-07T14:19:50.157Z,6.40
2022-09-07T14:22:33.894Z,6.63
2022-09-07T14:25:03.919Z,7.57
2022-09-07T14:27:39.688Z,7.15
2022-09-07T14:30:28.294Z,6.60
2022-09-07T14:33:13.993Z,6.18
2022-09-07T14:41:14.088Z,6.57
2022-09-07T14:43:55.851Z,6.90
2022-09-07T14:46:25.182Z,6.68
2022-09-07T14:49:00.683Z,5.63
2022-09-07T14:51:36.463Z,6.85
2022-09-07T14:54:07.259Z,5.75
2022-09-07T14:56:41.996Z,6.25
2022-09-07T14:59:39.174Z,6.35
2022-09-07T15:02:18.722Z,6.00
2022-09-07T15:04:47.155Z,5.35
2022-09-07T15:07:53.909Z,6.03
2022-09-07T15:10:21.106Z,5.18
2022-09-07T15:12:54.826Z,6.20
2022-09-07T15:15:26.299Z,5.65
2022-09-07T15:17:55.647Z,5.53
2022-09-07T15:20:40.551Z,5.95
2022-09-07T15:23:17.720Z,4.50
2022-09-07T15:25:50.853Z,5.65
2022-09-07T15:34:20.698Z,6.07
2022-09-07T15:36:50.415Z,4.78
2022-09-07T15:39:20.558Z,5.57
2022-09-07T15:41:48.379Z,5.47
2022-09-07T15:44:18.631Z,4.47
2022-09-07T15:49:36.375Z,5.25
2022-09-07T15:52:05.864Z,5.25
2022-09-07T15:54:35.329Z,4.63
2022-09-07T15:59:51.692Z,6.22
2022-09-07T16:05:08.163Z,7.10
2022-09-07T16:10:22.809Z,5.53
2022-09-07T16:13:11.098Z,4.90
2022-09-07T16:15:45.070Z,6.03
2022-09-07T16:18:16.426Z,5.63
2022-09-07T16:20:45.035Z,5.47
2022-09-07T16:23:14.882Z,5.65
2022-09-07T16:25:54.413Z,6.88
2022-09-07T16:28:21.651Z,5.68
2022-09-07T16:30:48.873Z,4.93
2022-09-07T16:33:16.210Z,5.50
2022-09-07T16:35:43.597Z,6.30
2022-09-07T16:40:58.740Z,7.28
2022-09-07T16:43:26.496Z,5.47
2022-09-07T16:46:08.103Z,5.63
2022-09-07T16:48:36.403Z,5.47
2022-09-07T16:51:05.194Z,5.05
2022-09-07T16:53:34.627Z,5.72
2022-09-07T16:56:07.473Z,15.35
2022-09-07T16:58:38.585Z,5.97
2022-09-07T17:01:07.316Z,6.32
2022-09-07T17:03:34.977Z,5.43
2022-09-07T17:06:03.694Z,5.72
2022-09-07T17:08:30.936Z,5.38
2022-09-07T17:11:02.067Z,6.05
2022-09-07T17:13:30.647Z,6.10
2022-09-07T17:16:13.114Z,5.85
2022-09-07T17:21:31.283Z,7.65
2022-09-07T17:24:00.659Z,6.10
2022-09-07T17:26:28.176Z,5.82
2022-09-07T17:29:00.284Z,6.28
2022-09-07T17:34:20.451Z,5.97
2022-09-07T17:36:48.366Z,6.78
2022-09-07T17:39:17.515Z,6.93
2022-09-07T17:41:52.600Z,6.40
2022-09-07T17:44:20.872Z,5.93
2022-09-07T17:46:48.537Z,6.53
2022-09-07T17:49:17.251Z,6.18
2022-09-07T17:51:45.687Z,5.13
2022-09-07T17:54:16.161Z,6.85
2022-09-07T17:56:43.895Z,6.82
2022-09-07T18:01:59.036Z,5.35
2022-09-07T18:04:26.569Z,6.53
2022-09-07T18:06:54.795Z,6.85
2022-09-07T18:09:22.186Z,6.75
2022-09-07T18:11:50.344Z,6.88
2022-09-07T18:14:18.821Z,6.43
2022-09-07T18:16:48.969Z,7.03
2022-09-07T18:19:18.286Z,6.28
2022-09-07T18:21:46.354Z,7.85
2022-09-07T18:24:19.425Z,7.05
2022-09-07T18:26:52.330Z,6.57
2022-09-07T18:29:29.325Z,7.28
2022-09-07T18:31:58.967Z,7.05
2022-09-07T18:34:26.761Z,7.50
2022-09-07T18:36:55.230Z,7.28
2022-09-07T18:39:22.909Z,7.47
2022-09-07T18:41:50.295Z,8.07
2022-09-07T18:47:06.740Z,7.38
2022-09-07T18:49:34.468Z,6.30
2022-09-07T18:54:50.328Z,7.60
2022-09-07T18:57:17.700Z,6.63
2022-09-07T18:59:45.778Z,8.05
2022-09-07T19:02:14.365Z,7.53
2022-09-07T19:07:30.153Z,7.65
2022-09-07T19:09:57.597Z,8.60
2022-09-07T19:12:28.228Z,8.63
2022-09-07T19:14:55.366Z,8.10
2022-09-07T19:17:22.813Z,8.10
2022-09-07T19:19:50.019Z,9.20
2022-09-07T19:22:17.200Z,9.32
2022-09-07T19:24:44.434Z,8.85
2022-09-07T19:27:11.686Z,9.07
2022-09-07T19:29:38.990Z,8.50
2022-09-07T19:32:07.944Z,8.75
2022-09-07T19:34:37.416Z,8.52
2022-09-07T19:37:06.607Z,8.63
2022-09-07T19:39:33.965Z,9.00
2022-09-07T19:42:02.554Z,9.73
2022-09-07T19:44:29.920Z,11.00
2022-09-07T19:46:57.158Z,10.07
2022-09-07T19:49:24.561Z,9.23
2022-09-07T19:51:52.344Z,9.82
2022-09-07T19:54:19.865Z,9.80
2022-09-07T19:56:47.187Z,9.77
2022-09-07T19:59:14.742Z,8.50
2022-09-07T20:01:46.492Z,10.07
2022-09-07T20:04:20.325Z,10.40
2022-09-07T20:06:50.437Z,10.38
2022-09-07T20:09:19.306Z,8.98
2022-09-07T20:11:47.878Z,9.80
2022-09-07T20:14:15.841Z,9.38
2022-09-07T20:16:43.146Z,9.30
2022-09-07T20:19:15.011Z,8.90
2022-09-07T20:21:43.257Z,10.25
2022-09-07T20:24:14.835Z,9.00
2022-09-07T20:26:42.354Z,10.32
2022-09-07T20:31:58.550Z,9.40
2022-09-07T20:34:27.280Z,10.10
2022-09-07T20:36:54.938Z,9.75
2022-09-07T20:39:22.384Z,9.50
2022-09-07T20:41:49.945Z,9.02
2022-09-07T20:44:17.337Z,9.52
2022-09-07T20:46:44.728Z,9.57
2022-09-07T20:49:11.993Z,9.25
2022-09-07T20:51:39.206Z,10.55
2022-09-07T20:54:07.375Z,10.77
2022-09-07T20:56:34.847Z,9.43
2022-09-07T20:59:03.376Z,10.70
2022-09-07T21:01:32.170Z,9.98
2022-09-07T21:04:01.138Z,10.07
2022-09-07T21:06:29.584Z,9.85
2022-09-07T21:08:57.465Z,9.82
2022-09-07T21:11:35.261Z,10.25
2022-09-07T21:14:08.833Z,11.15
2022-09-07T21:16:37.211Z,11.45
2022-09-07T21:19:07.454Z,9.98
2022-09-07T21:21:39.136Z,10.48
2022-09-07T21:24:12.952Z,11.93
2022-09-07T21:26:40.184Z,11.07
2022-09-07T21:29:07.895Z,9.65
2022-09-07T21:31:35.072Z,9.77
2022-09-07T21:34:02.746Z,10.23
2022-09-07T21:36:30.161Z,10.55
2022-09-07T21:38:57.498Z,10.23
2022-09-07T21:41:25.471Z,10.10
2022-09-07T21:44:00.398Z,11.02
2022-09-07T21:46:28.778Z,9.45
2022-09-07T21:48:57.491Z,14.40
2022-09-07T21:51:26.174Z,15.90
2022-09-07T21:53:58.121Z,13.80
2022-09-07T21:56:26.452Z,13.20
2022-09-07T21:58:55.826Z,11.07
2022-09-07T22:01:25.044Z,12.13
2022-09-07T22:03:57.804Z,10.45
2022-09-07T22:06:27.573Z,10.52
2022-09-07T22:08:56.055Z,10.02
2022-09-07T22:11:25.846Z,10.23
2022-09-07T22:13:58.449Z,9.13
2022-09-07T22:16:25.905Z,9.55
2022-09-07T22:18:53.847Z,11.27
2022-09-07T22:21:24.255Z,10.13
2022-09-07T22:23:55.702Z,10.10
2022-09-07T22:26:26.223Z,10.20
2022-09-07T22:28:53.352Z,10.20
2022-09-07T22:31:36.501Z,10.77
2022-09-07T22:34:05.639Z,10.88
2022-09-07T22:36:42.298Z,9.50
2022-09-07T22:39:15.967Z,11.05
2022-09-07T22:41:44.188Z,10.02
2022-09-07T22:44:16.467Z,9.88
2022-09-07T22:46:44.950Z,9.70
2022-09-07T22:49:13.657Z,9.00
2022-09-07T22:51:40.820Z,10.90
2022-09-07T22:54:08.677Z,9.50
2022-09-07T22:56:36.207Z,10.35
2022-09-07T22:59:07.743Z,9.27
2022-09-07T23:01:35.677Z,9.95
2022-09-07T23:04:03.811Z,9.60
2022-09-07T23:06:33.602Z,10.93
2022-09-07T23:09:03.800Z,9.77
2022-09-07T23:11:30.992Z,8.93
2022-09-07T23:14:00.467Z,11.30
2022-09-07T23:16:28.314Z,9.65
2022-09-07T23:18:57.639Z,9.93
2022-09-07T23:21:25.191Z,9.95
2022-09-07T23:23:53.698Z,9.77
2022-09-07T23:26:22.780Z,10.90
2022-09-07T23:28:57.921Z,10.27
2022-09-07T23:31:26.336Z,10.45
2022-09-07T23:33:53.611Z,10.65
2022-09-07T23:36:21.313Z,11.63
2022-09-07T23:38:49.022Z,10.57
2022-09-07T23:41:22.369Z,9.57
2022-09-07T23:43:49.381Z,9.90
2022-09-07T23:46:16.667Z,9.73
2022-09-07T23:48:45.036Z,10.65
2022-09-07T23:51:13.297Z,10.27
2022-09-07T23:53:41.216Z,9.00
2022-09-07T23:56:08.476Z,10.25
2022-09-07T23:58:35.531Z,10.05
